KEAT/EAT METAR and TAF weather

Enter ICAO airport designator
Station Type Date Time Source
KEAT METAR 2018/12/13 14:55 UTC NOAA

KEAT 131455Z AUTO 29003KT 10SM OVC060 01/M01 A3006 RMK AO2 SLP188 T00111006 58001


Station Type Date Time Source
KEAT Decoded METAR 2018/12/13 14:55 UTC NOAA

WENATCHEE PANGBORN MEMO, WA, United States (KEAT) 47-24N 120-12W 377M
Dec 13, 2018 - 09:55 AM EST / 2018.12.13 1455 UTC
Wind: from the WNW (290 degrees) at 3 MPH (3 KT):0
Visibility: 10 mile(s):0
Sky conditions: overcast
Temperature: 34.0 F (1.1 C)
Dew Point: 30.9 F (-0.6 C)
Relative Humidity: 88%
Pressure (altimeter): 30.06 in. Hg (1017 hPa)
Pressure tendency: 0.00 inches (0.1 hPa) lower than three hours ago
ob: KEAT 131455Z AUTO 29003KT 10SM OVC060 01/M01 A3006 RMK AO2 SLP188 T00111006 58001
cycle: 15

Station Type Date Time Source
KEAT TAF 2018/12/13 12:45 UTC NOAA

TAF KEAT 131141Z 1312/1412 00000KT P6SM VCSH SCT040 OVC100
FM131600 VRB03KT P6SM SCT120 OVC200
FM140300 VRB03KT P6SM VCSH SCT070 OVC120
FM140800 VRB03KT P6SM BKN150


Example: see airport list